< < Back
Terminal Aerodrome Forecast


Current Version              Previous Versions:   1  2  3  4  5  6  7  8  9  

Terminal Aerodrome Forecast

661
FTUS42 KCAE 231700
TAFAGS
TAF
KAGS 231734Z 2318/2418 06010G15KT P6SM BKN030
      TEMPO 2318/2322 SCT030
     FM240000 04007KT P6SM BKN035
      TEMPO 2408/2412 BKN025=



Latest METAR

027
SAUS70 KWBC 232200 RRH
MTRAGS
METAR KAGS 232153Z 03010KT 10SM OVC025 21/15 A3018 RMK AO2 SLP219
T02060150


USA.gov is the U.S. government's official web portal to all federal, state and local government web resources and services.